createdAt,value
2018-07-13T00:02:08.503Z,76.42
2018-07-13T00:05:12.996Z,76.40
2018-07-13T00:08:17.262Z,76.09
2018-07-13T00:11:21.544Z,76.51
2018-07-13T00:14:26.843Z,77.11
2018-07-13T00:17:31.213Z,77.26
2018-07-13T00:20:35.494Z,76.87
2018-07-13T00:23:39.933Z,77.64
2018-07-13T00:26:44.438Z,78.12
2018-07-13T00:29:48.757Z,77.83
2018-07-13T00:32:53.157Z,78.49
2018-07-13T00:35:57.456Z,78.36
2018-07-13T00:39:01.859Z,78.83
2018-07-13T00:42:07.794Z,78.99
2018-07-13T00:45:12.081Z,78.39
2018-07-13T00:48:16.861Z,78.83
2018-07-13T00:51:21.177Z,79.08
2018-07-13T00:54:25.554Z,79.08
2018-07-13T00:57:29.866Z,79.62
2018-07-13T01:00:34.172Z,80.33
2018-07-13T01:03:38.477Z,79.81
2018-07-13T01:06:43.984Z,79.71
2018-07-13T01:09:49.210Z,79.65
2018-07-13T01:12:53.511Z,78.90
2018-07-13T01:15:57.960Z,79.52
2018-07-13T01:19:02.548Z,79.81
2018-07-13T01:22:06.861Z,79.24
2018-07-13T01:25:11.182Z,79.51
2018-07-13T01:28:16.187Z,80.26
2018-07-13T01:31:20.507Z,80.96
2018-07-13T01:34:25.131Z,80.68
2018-07-13T01:37:29.454Z,81.19
2018-07-13T01:40:33.738Z,81.13
2018-07-13T01:43:38.638Z,82.04
2018-07-13T01:46:42.890Z,81.48
2018-07-13T01:49:47.289Z,81.91
2018-07-13T01:52:51.716Z,81.49
2018-07-13T01:56:07.009Z,81.75
2018-07-13T01:59:11.385Z,81.90
2018-07-13T02:02:16.688Z,81.74
2018-07-13T02:05:21.005Z,82.02
2018-07-13T02:08:25.329Z,81.70
2018-07-13T02:11:30.223Z,82.26
2018-07-13T02:14:34.554Z,82.27
2018-07-13T02:17:38.929Z,82.25
2018-07-13T02:20:44.464Z,82.47
2018-07-13T02:23:48.814Z,82.75
2018-07-13T02:26:53.266Z,82.93
2018-07-13T02:29:57.577Z,82.43
2018-07-13T02:33:01.960Z,82.84
2018-07-13T02:36:06.294Z,83.36
2018-07-13T02:39:11.638Z,83.43
2018-07-13T02:42:15.888Z,83.55
2018-07-13T02:45:21.822Z,84.48
2018-07-13T02:48:26.225Z,84.37
2018-07-13T02:51:30.621Z,84.76
2018-07-13T02:54:35.006Z,84.38
2018-07-13T02:57:39.380Z,83.51
2018-07-13T03:00:44.056Z,83.63
2018-07-13T03:03:48.334Z,82.76
2018-07-13T03:06:52.713Z,83.20
2018-07-13T03:09:57.024Z,83.89
2018-07-13T03:13:02.413Z,84.42
2018-07-13T03:16:07.152Z,84.12
2018-07-13T03:19:12.062Z,84.06
2018-07-13T03:22:17.572Z,83.58
2018-07-13T03:25:21.868Z,83.75
2018-07-13T03:28:26.174Z,84.13
2018-07-13T03:31:31.792Z,83.62
2018-07-13T03:34:36.143Z,83.40
2018-07-13T03:37:41.101Z,82.64
2018-07-13T03:40:45.442Z,82.02
2018-07-13T03:43:49.841Z,82.50
2018-07-13T03:46:55.081Z,82.73
2018-07-13T03:49:59.962Z,82.85
2018-07-13T03:53:04.307Z,83.25
2018-07-13T03:56:08.720Z,83.76
2018-07-13T03:59:13.827Z,83.66
2018-07-13T04:02:18.217Z,83.09
2018-07-13T04:05:22.717Z,82.40
2018-07-13T04:08:28.158Z,82.76
2018-07-13T04:11:32.453Z,82.19
2018-07-13T04:14:37.859Z,81.84
2018-07-13T04:17:42.230Z,82.46
2018-07-13T04:20:46.523Z,82.73
2018-07-13T04:23:51.047Z,82.32
2018-07-13T04:26:56.882Z,82.72
2018-07-13T04:30:22.353Z,82.87
2018-07-13T04:33:26.778Z,82.46
2018-07-13T04:36:31.049Z,82.33
2018-07-13T04:39:36.027Z,81.85
2018-07-13T04:42:40.305Z,81.24
2018-07-13T04:45:44.690Z,80.41
2018-07-13T04:48:49.099Z,80.13
2018-07-13T04:51:53.617Z,80.07
2018-07-13T04:54:58.038Z,82.05
2018-07-13T04:58:02.368Z,80.90
2018-07-13T05:01:06.694Z,80.99
2018-07-13T05:04:11.427Z,83.66
2018-07-13T05:07:15.461Z,83.76
2018-07-13T05:10:19.973Z,83.25
2018-07-13T05:13:25.049Z,82.60
2018-07-13T05:16:29.345Z,83.39
2018-07-13T05:19:33.682Z,82.53
2018-07-13T05:22:38.009Z,80.67
2018-07-13T05:25:42.392Z,80.56
2018-07-13T05:28:48.166Z,79.95
2018-07-13T05:31:52.487Z,79.54
2018-07-13T05:34:57.357Z,79.04
2018-07-13T05:38:01.860Z,78.44
2018-07-13T05:41:06.878Z,77.49
2018-07-13T05:44:11.195Z,77.00
2018-07-13T05:47:15.550Z,77.86
2018-07-13T05:50:19.931Z,77.66
2018-07-13T05:53:25.409Z,76.43
2018-07-13T05:56:29.714Z,76.62
2018-07-13T05:59:34.016Z,76.10
2018-07-13T06:02:38.292Z,75.24
2018-07-13T06:05:42.677Z,72.13
2018-07-13T06:08:47.319Z,72.33
2018-07-13T06:11:51.921Z,66.35
2018-07-13T06:14:56.774Z,66.85
2018-07-13T06:18:01.327Z,60.04
2018-07-13T06:21:05.649Z,57.46
2018-07-13T06:24:10.102Z,64.80
2018-07-13T06:27:14.426Z,66.50
2018-07-13T06:30:18.820Z,65.68
2018-07-13T06:33:23.693Z,59.28
2018-07-13T06:36:28.577Z,55.71
2018-07-13T06:39:33.487Z,52.01
2018-07-13T06:42:37.809Z,51.09
2018-07-13T06:45:42.223Z,48.74
2018-07-13T06:48:46.735Z,48.46
2018-07-13T06:51:52.091Z,44.41
2018-07-13T06:54:56.378Z,43.04
2018-07-13T06:58:18.649Z,42.64
2018-07-13T07:01:24.193Z,47.56
2018-07-13T07:04:38.417Z,46.46
2018-07-13T07:07:43.801Z,46.95
2018-07-13T07:10:48.050Z,46.59
2018-07-13T07:13:52.941Z,43.39
2018-07-13T07:16:57.392Z,48.19
2018-07-13T07:20:02.356Z,50.12
2018-07-13T07:23:06.825Z,47.78
2018-07-13T07:26:12.102Z,45.50
2018-07-13T07:29:16.352Z,43.03
2018-07-13T07:32:20.791Z,46.28
2018-07-13T07:35:25.150Z,47.75
2018-07-13T07:38:29.935Z,47.88
2018-07-13T07:41:34.185Z,47.22
2018-07-13T07:44:38.495Z,45.20
2018-07-13T07:47:42.838Z,43.89
2018-07-13T07:50:47.585Z,45.01
2018-07-13T07:53:51.998Z,46.00
2018-07-13T07:56:56.536Z,48.59
2018-07-13T08:00:00.796Z,48.07
2018-07-13T08:03:05.506Z,48.12
2018-07-13T08:06:09.846Z,44.05
2018-07-13T08:09:14.699Z,42.32
2018-07-13T08:12:18.994Z,43.54
2018-07-13T08:15:23.269Z,43.41
2018-07-13T08:18:27.600Z,42.15
2018-07-13T08:21:31.881Z,41.35
2018-07-13T08:24:36.357Z,42.22
2018-07-13T08:27:45.849Z,41.91
2018-07-13T08:30:53.717Z,39.05
2018-07-13T08:33:58.081Z,43.30
2018-07-13T08:37:02.389Z,44.90
2018-07-13T08:40:06.694Z,42.69
2018-07-13T08:43:11.963Z,42.36
2018-07-13T08:46:17.240Z,44.39
2018-07-13T08:49:21.534Z,42.01
2018-07-13T08:52:26.126Z,42.57
2018-07-13T08:55:30.829Z,44.03
2018-07-13T08:58:35.169Z,44.59
2018-07-13T09:01:39.559Z,42.37
2018-07-13T09:04:43.832Z,44.17
2018-07-13T09:07:48.130Z,44.05
2018-07-13T09:10:52.651Z,41.64
2018-07-13T09:13:56.991Z,42.10
2018-07-13T09:17:01.346Z,42.93
2018-07-13T09:20:07.525Z,40.84
2018-07-13T09:23:11.801Z,42.17
2018-07-13T09:26:16.819Z,40.73
2018-07-13T09:29:21.212Z,41.26
2018-07-13T09:32:25.558Z,40.79
2018-07-13T09:35:30.689Z,41.28
2018-07-13T09:38:35.101Z,39.82
2018-07-13T09:41:39.402Z,40.61
2018-07-13T09:44:43.927Z,34.68
2018-07-13T09:47:48.296Z,38.35
2018-07-13T09:50:53.386Z,39.26
2018-07-13T09:53:58.029Z,39.39
2018-07-13T09:57:02.098Z,39.42
2018-07-13T10:00:06.513Z,38.96
2018-07-13T10:03:10.795Z,40.58
2018-07-13T10:06:17.074Z,40.73
2018-07-13T10:09:21.374Z,40.33
2018-07-13T10:12:25.700Z,40.90
2018-07-13T10:15:30.181Z,42.68
2018-07-13T10:18:34.485Z,42.29
2018-07-13T10:21:41.881Z,42.76
2018-07-13T10:24:47.228Z,41.16
2018-07-13T10:27:51.714Z,40.17
2018-07-13T10:30:56.822Z,40.19
2018-07-13T10:34:01.438Z,36.36
2018-07-13T10:37:06.266Z,36.08
2018-07-13T10:40:11.813Z,36.36
2018-07-13T10:43:16.753Z,38.83
2018-07-13T10:46:21.930Z,38.84
2018-07-13T10:49:26.359Z,39.44
2018-07-13T10:52:30.765Z,37.25
2018-07-13T10:55:35.326Z,36.84
2018-07-13T10:58:39.702Z,36.10
2018-07-13T11:01:44.078Z,38.32
2018-07-13T11:04:48.604Z,36.21
2018-07-13T11:07:53.181Z,37.57
2018-07-13T11:10:57.449Z,38.96
2018-07-13T11:14:04.405Z,38.99
2018-07-13T11:17:08.628Z,40.29
2018-07-13T11:20:13.048Z,40.33
2018-07-13T11:23:18.215Z,37.56
2018-07-13T11:26:22.522Z,38.31
2018-07-13T11:29:26.800Z,37.38
2018-07-13T11:32:31.344Z,37.78
2018-07-13T11:35:35.691Z,35.99
2018-07-13T11:38:40.201Z,35.44
2018-07-13T11:41:44.503Z,37.11
2018-07-13T11:44:48.786Z,38.16
2018-07-13T11:47:53.301Z,37.92
2018-07-13T11:50:57.874Z,37.34
2018-07-13T11:54:02.367Z,35.75
2018-07-13T11:57:06.825Z,35.53
2018-07-13T12:00:11.113Z,36.07
2018-07-13T12:03:18.154Z,35.62
2018-07-13T12:06:22.454Z,34.86
2018-07-13T12:09:26.854Z,34.22
2018-07-13T12:12:32.388Z,35.23
2018-07-13T12:15:36.582Z,33.68
2018-07-13T12:18:40.868Z,35.57
2018-07-13T12:21:45.333Z,35.33
2018-07-13T12:24:49.594Z,35.42
2018-07-13T12:27:53.872Z,34.43
2018-07-13T12:30:58.778Z,34.64
2018-07-13T12:34:03.065Z,34.14
2018-07-13T12:37:08.241Z,36.69
2018-07-13T12:40:12.493Z,34.56
2018-07-13T12:43:16.766Z,33.76
2018-07-13T12:46:21.065Z,32.55
2018-07-13T12:49:25.341Z,33.66
2018-07-13T12:52:29.851Z,34.04
2018-07-13T12:55:34.394Z,33.52
2018-07-13T12:58:38.821Z,33.34
2018-07-13T13:01:43.081Z,33.42
2018-07-13T13:04:48.465Z,33.51
2018-07-13T13:07:52.793Z,35.06
2018-07-13T13:10:57.098Z,34.07
2018-07-13T13:14:01.571Z,34.01
2018-07-13T13:17:06.896Z,33.16
2018-07-13T13:20:11.241Z,33.15
2018-07-13T13:23:15.563Z,33.45
2018-07-13T13:26:19.852Z,32.03
2018-07-13T13:29:24.206Z,33.28
2018-07-13T13:32:28.605Z,34.24
2018-07-13T13:35:35.295Z,33.43
2018-07-13T13:38:39.752Z,32.49
2018-07-13T13:41:44.129Z,33.45
2018-07-13T13:44:49.686Z,31.81
2018-07-13T13:47:53.974Z,33.53
2018-07-13T13:50:59.338Z,32.27
2018-07-13T13:54:04.500Z,31.60
2018-07-13T13:57:08.816Z,32.51
2018-07-13T14:00:13.216Z,33.35
2018-07-13T14:03:18.060Z,33.95
2018-07-13T14:06:22.436Z,34.47
2018-07-13T14:09:27.650Z,34.79
2018-07-13T14:12:32.015Z,35.29
2018-07-13T14:15:36.363Z,36.15
2018-07-13T14:18:40.718Z,36.08
2018-07-13T14:21:45.745Z,36.53
2018-07-13T14:24:50.602Z,34.58
2018-07-13T14:27:54.901Z,36.29
2018-07-13T14:30:59.680Z,35.99
2018-07-13T14:34:04.263Z,35.58
2018-07-13T14:37:08.868Z,35.28
2018-07-13T14:40:13.307Z,35.06
2018-07-13T14:43:18.763Z,34.63
2018-07-13T14:46:23.674Z,34.09
2018-07-13T14:49:28.099Z,32.25
2018-07-13T14:52:32.478Z,31.71
2018-07-13T14:55:36.816Z,32.99
2018-07-13T14:58:41.121Z,32.77
2018-07-13T15:01:45.522Z,31.46
2018-07-13T15:04:50.791Z,32.43
2018-07-13T15:07:55.304Z,33.45
2018-07-13T15:10:59.808Z,33.63
2018-07-13T15:14:04.406Z,33.33
2018-07-13T15:17:08.780Z,33.99
2018-07-13T15:20:13.136Z,33.61
2018-07-13T15:23:19.281Z,33.65
2018-07-13T15:26:23.602Z,33.48
2018-07-13T15:29:27.867Z,31.58
2018-07-13T15:32:32.931Z,32.00
2018-07-13T15:35:37.249Z,32.55
2018-07-13T15:38:41.761Z,31.61
2018-07-13T15:41:47.329Z,32.24
2018-07-13T15:44:51.613Z,32.97
2018-07-13T15:47:56.158Z,34.04
2018-07-13T15:51:00.603Z,30.97
2018-07-13T15:54:05.768Z,32.40
2018-07-13T15:57:10.159Z,31.77
2018-07-13T16:00:14.177Z,31.86
2018-07-13T16:03:18.756Z,31.77
2018-07-13T16:06:23.827Z,31.10
2018-07-13T16:09:28.553Z,32.19
2018-07-13T16:12:32.683Z,32.36
2018-07-13T16:15:37.128Z,31.44
2018-07-13T16:18:41.417Z,31.00
2018-07-13T16:21:45.495Z,31.93
2018-07-13T16:24:50.017Z,33.04
2018-07-13T16:27:54.719Z,33.55
2018-07-13T16:30:59.206Z,32.51
2018-07-13T16:34:04.386Z,33.20
2018-07-13T16:37:08.613Z,31.98
2018-07-13T16:40:13.031Z,32.53
2018-07-13T16:43:17.692Z,32.55
2018-07-13T16:46:22.182Z,33.38
2018-07-13T16:49:26.488Z,32.51
2018-07-13T16:52:30.632Z,31.01
2018-07-13T16:55:35.654Z,29.52
2018-07-13T16:58:40.078Z,29.90
2018-07-13T17:01:44.817Z,29.16
2018-07-13T17:04:49.213Z,29.56
2018-07-13T17:07:54.162Z,28.17
2018-07-13T17:10:59.033Z,31.35
2018-07-13T17:14:03.935Z,30.31
2018-07-13T17:17:09.123Z,29.28
2018-07-13T17:20:14.290Z,30.06
2018-07-13T17:23:18.931Z,33.69
2018-07-13T17:26:23.213Z,33.96
2018-07-13T17:29:29.687Z,34.51
2018-07-13T17:32:34.282Z,33.67
2018-07-13T17:35:39.123Z,33.86
2018-07-13T17:38:43.669Z,32.86
2018-07-13T17:41:48.013Z,33.49
2018-07-13T17:44:52.912Z,33.42
2018-07-13T17:47:57.352Z,33.36
2018-07-13T17:51:02.050Z,33.80
2018-07-13T17:54:06.680Z,34.65
2018-07-13T17:57:11.232Z,35.57
2018-07-13T18:00:15.669Z,36.38
2018-07-13T18:03:20.239Z,36.84
2018-07-13T18:06:24.608Z,38.50
2018-07-13T18:09:28.953Z,38.60
2018-07-13T18:12:34.479Z,38.78
2018-07-13T18:15:39.837Z,38.17
2018-07-13T18:18:44.318Z,39.07
2018-07-13T18:21:48.638Z,39.37
2018-07-13T18:24:52.936Z,39.67
2018-07-13T18:27:57.288Z,39.69
2018-07-13T18:31:01.587Z,40.51
2018-07-13T18:34:05.881Z,41.63
2018-07-13T18:37:11.005Z,43.36
2018-07-13T18:40:16.266Z,46.64
2018-07-13T18:43:21.047Z,44.85
2018-07-13T18:46:25.514Z,44.35
2018-07-13T18:49:31.132Z,44.06
2018-07-13T18:52:35.476Z,45.45
2018-07-13T18:55:39.882Z,45.89
2018-07-13T18:58:45.549Z,45.84
2018-07-13T19:01:50.020Z,45.37
2018-07-13T19:04:55.513Z,46.50
2018-07-13T19:08:00.069Z,47.30
2018-07-13T19:11:05.665Z,47.13
2018-07-13T19:14:10.114Z,47.15
2018-07-13T19:17:14.787Z,47.55
2018-07-13T19:20:19.658Z,48.68
2018-07-13T19:23:24.148Z,48.52
2018-07-13T19:26:28.692Z,50.06
2018-07-13T19:29:34.945Z,50.48
2018-07-13T19:32:39.553Z,51.64
2018-07-13T19:35:57.745Z,51.80
2018-07-13T19:39:02.310Z,51.68
2018-07-13T19:42:06.936Z,56.44
2018-07-13T19:45:12.088Z,57.13
2018-07-13T19:48:16.684Z,55.87
2018-07-13T19:51:21.096Z,55.41
2018-07-13T19:54:26.014Z,55.83
2018-07-13T19:57:30.545Z,56.22
2018-07-13T20:00:34.961Z,56.65
2018-07-13T20:03:39.341Z,57.24
2018-07-13T20:06:44.301Z,57.11
2018-07-13T20:09:49.130Z,57.71
2018-07-13T20:12:53.717Z,58.02
2018-07-13T20:15:58.236Z,57.84
2018-07-13T20:19:02.565Z,57.85
2018-07-13T20:22:06.907Z,58.17
2018-07-13T20:25:11.256Z,58.37
2018-07-13T20:28:15.847Z,58.21
2018-07-13T20:31:20.171Z,58.40
2018-07-13T20:34:24.594Z,58.52
2018-07-13T20:37:29.038Z,59.02
2018-07-13T20:40:33.345Z,58.56
2018-07-13T20:43:38.860Z,59.41
2018-07-13T20:46:43.237Z,60.33
2018-07-13T20:49:47.802Z,59.71
2018-07-13T20:52:53.852Z,59.64
2018-07-13T20:55:59.812Z,60.23
2018-07-13T20:59:04.276Z,60.44
2018-07-13T21:02:08.808Z,61.58
2018-07-13T21:05:13.217Z,61.36
2018-07-13T21:08:17.547Z,61.44
2018-07-13T21:11:22.037Z,61.11
2018-07-13T21:14:26.905Z,61.45
2018-07-13T21:17:31.182Z,61.09
2018-07-13T21:20:35.427Z,61.22
2018-07-13T21:23:39.824Z,61.92
2018-07-13T21:26:44.901Z,61.28
2018-07-13T21:29:49.139Z,62.28
2018-07-13T21:32:53.634Z,62.64
2018-07-13T21:35:57.991Z,62.69
2018-07-13T21:39:02.472Z,63.40
2018-07-13T21:42:08.331Z,63.84
2018-07-13T21:45:13.758Z,64.29
2018-07-13T21:48:18.466Z,64.74
2018-07-13T21:51:22.810Z,65.37
2018-07-13T21:54:27.206Z,65.09
2018-07-13T21:57:31.475Z,65.46
2018-07-13T22:00:35.936Z,65.34
2018-07-13T22:03:40.651Z,66.02
2018-07-13T22:06:45.353Z,66.45
2018-07-13T22:09:49.892Z,67.04
2018-07-13T22:12:54.248Z,66.85
2018-07-13T22:15:58.601Z,66.31
2018-07-13T22:19:02.950Z,66.47
2018-07-13T22:22:07.517Z,66.06
2018-07-13T22:25:11.906Z,66.32
2018-07-13T22:28:17.318Z,66.49
2018-07-13T22:31:21.782Z,66.88
2018-07-13T22:34:26.422Z,67.40
2018-07-13T22:37:30.711Z,67.48
2018-07-13T22:40:34.989Z,67.34
2018-07-13T22:43:39.290Z,67.68
2018-07-13T22:46:44.480Z,67.62
2018-07-13T22:49:48.941Z,68.36
2018-07-13T22:52:53.553Z,68.55
2018-07-13T22:55:57.924Z,67.95
2018-07-13T22:59:02.618Z,68.31
2018-07-13T23:02:07.182Z,68.22
2018-07-13T23:05:11.460Z,68.21
2018-07-13T23:08:15.801Z,68.73
2018-07-13T23:11:20.162Z,68.58
2018-07-13T23:14:24.546Z,68.88
2018-07-13T23:17:29.002Z,69.31
2018-07-13T23:20:33.485Z,69.98
2018-07-13T23:23:38.484Z,69.61
2018-07-13T23:26:43.001Z,69.62
2018-07-13T23:29:47.258Z,70.34
2018-07-13T23:32:51.658Z,70.23
2018-07-13T23:35:56.061Z,70.11
2018-07-13T23:39:00.704Z,69.65
2018-07-13T23:42:04.987Z,70.32
2018-07-13T23:45:09.870Z,69.96
2018-07-13T23:48:14.244Z,71.03
2018-07-13T23:51:18.529Z,73.66
2018-07-13T23:54:22.837Z,74.14
2018-07-13T23:57:27.084Z,74.64
